sensor_id;sensor_type;location;lat;lon;timestamp;P1;durP1;ratioP1;P2;durP2;ratioP2
34234;SDS011;20500;49.856;20.290;2023-03-14T00:01:13;8.00;;;2.90;;
34234;SDS011;20500;49.856;20.290;2023-03-14T00:04:22;9.30;;;2.60;;
34234;SDS011;20500;49.856;20.290;2023-03-14T00:07:28;7.80;;;2.50;;
34234;SDS011;20500;49.856;20.290;2023-03-14T00:10:37;8.10;;;2.40;;
34234;SDS011;20500;49.856;20.290;2023-03-14T00:16:47;7.00;;;2.50;;
34234;SDS011;20500;49.856;20.290;2023-03-14T00:22:57;6.90;;;2.50;;
34234;SDS011;20500;49.856;20.290;2023-03-14T00:26:04;8.30;;;2.60;;
34234;SDS011;20500;49.856;20.290;2023-03-14T00:29:12;7.50;;;2.40;;
34234;SDS011;20500;49.856;20.290;2023-03-14T00:32:18;7.90;;;2.50;;
34234;SDS011;20500;49.856;20.290;2023-03-14T00:35:24;9.00;;;3.60;;
34234;SDS011;20500;49.856;20.290;2023-03-14T00:38:31;9.70;;;2.80;;
34234;SDS011;20500;49.856;20.290;2023-03-14T00:41:37;6.80;;;2.40;;
34234;SDS011;20500;49.856;20.290;2023-03-14T00:44:43;7.10;;;2.60;;
34234;SDS011;20500;49.856;20.290;2023-03-14T00:47:49;6.80;;;2.50;;
34234;SDS011;20500;49.856;20.290;2023-03-14T00:50:55;8.90;;;2.50;;
34234;SDS011;20500;49.856;20.290;2023-03-14T00:54:01;9.50;;;2.90;;
34234;SDS011;20500;49.856;20.290;2023-03-14T00:57:07;8.80;;;3.00;;
34234;SDS011;20500;49.856;20.290;2023-03-14T01:00:14;6.30;;;2.40;;
34234;SDS011;20500;49.856;20.290;2023-03-14T01:03:20;8.20;;;2.50;;
34234;SDS011;20500;49.856;20.290;2023-03-14T01:06:27;9.00;;;3.30;;
34234;SDS011;20500;49.856;20.290;2023-03-14T01:09:33;7.00;;;2.30;;
34234;SDS011;20500;49.856;20.290;2023-03-14T01:12:39;7.50;;;2.50;;
34234;SDS011;20500;49.856;20.290;2023-03-14T01:15:45;7.50;;;2.60;;
34234;SDS011;20500;49.856;20.290;2023-03-14T01:18:51;9.50;;;3.40;;
34234;SDS011;20500;49.856;20.290;2023-03-14T01:21:58;8.30;;;2.80;;
34234;SDS011;20500;49.856;20.290;2023-03-14T01:25:04;9.50;;;3.90;;
34234;SDS011;20500;49.856;20.290;2023-03-14T01:28:11;7.90;;;2.60;;
34234;SDS011;20500;49.856;20.290;2023-03-14T01:31:18;7.90;;;2.60;;
34234;SDS011;20500;49.856;20.290;2023-03-14T01:37:29;6.50;;;2.70;;
34234;SDS011;20500;49.856;20.290;2023-03-14T01:40:40;9.00;;;3.60;;
34234;SDS011;20500;49.856;20.290;2023-03-14T01:43:47;7.00;;;2.50;;
34234;SDS011;20500;49.856;20.290;2023-03-14T01:46:54;8.50;;;3.10;;
34234;SDS011;20500;49.856;20.290;2023-03-14T01:53:06;7.10;;;2.60;;
34234;SDS011;20500;49.856;20.290;2023-03-14T01:56:12;7.80;;;2.40;;
34234;SDS011;20500;49.856;20.290;2023-03-14T01:59:21;6.10;;;2.40;;
34234;SDS011;20500;49.856;20.290;2023-03-14T02:02:28;8.90;;;2.70;;
34234;SDS011;20500;49.856;20.290;2023-03-14T02:05:35;10.10;;;3.30;;
34234;SDS011;20500;49.856;20.290;2023-03-14T02:08:44;7.70;;;2.90;;
34234;SDS011;20500;49.856;20.290;2023-03-14T02:11:51;7.80;;;2.80;;
34234;SDS011;20500;49.856;20.290;2023-03-14T02:14:57;8.10;;;2.80;;
34234;SDS011;20500;49.856;20.290;2023-03-14T02:18:04;8.50;;;3.10;;
34234;SDS011;20500;49.856;20.290;2023-03-14T02:21:14;7.50;;;2.60;;
34234;SDS011;20500;49.856;20.290;2023-03-14T02:24:25;7.10;;;2.60;;
34234;SDS011;20500;49.856;20.290;2023-03-14T02:27:39;7.30;;;2.50;;
34234;SDS011;20500;49.856;20.290;2023-03-14T02:33:50;8.20;;;2.70;;
34234;SDS011;20500;49.856;20.290;2023-03-14T02:36:56;8.20;;;2.80;;
34234;SDS011;20500;49.856;20.290;2023-03-14T02:40:05;6.40;;;2.60;;
34234;SDS011;20500;49.856;20.290;2023-03-14T02:43:12;7.80;;;2.90;;
34234;SDS011;20500;49.856;20.290;2023-03-14T02:49:24;6.20;;;2.10;;
34234;SDS011;20500;49.856;20.290;2023-03-14T02:52:34;7.80;;;3.10;;
34234;SDS011;20500;49.856;20.290;2023-03-14T02:55:40;8.00;;;3.20;;
34234;SDS011;20500;49.856;20.290;2023-03-14T02:58:48;8.60;;;3.00;;
34234;SDS011;20500;49.856;20.290;2023-03-14T03:01:54;9.30;;;2.90;;
34234;SDS011;20500;49.856;20.290;2023-03-14T03:05:00;8.60;;;3.00;;
34234;SDS011;20500;49.856;20.290;2023-03-14T03:08:05;9.50;;;3.40;;
34234;SDS011;20500;49.856;20.290;2023-03-14T03:11:12;8.40;;;3.00;;
34234;SDS011;20500;49.856;20.290;2023-03-14T03:14:18;8.80;;;3.40;;
34234;SDS011;20500;49.856;20.290;2023-03-14T03:17:24;9.10;;;2.90;;
34234;SDS011;20500;49.856;20.290;2023-03-14T03:20:29;7.60;;;2.70;;
34234;SDS011;20500;49.856;20.290;2023-03-14T03:23:35;7.40;;;2.70;;
34234;SDS011;20500;49.856;20.290;2023-03-14T03:26:41;7.60;;;2.80;;
34234;SDS011;20500;49.856;20.290;2023-03-14T03:29:47;8.20;;;2.70;;
34234;SDS011;20500;49.856;20.290;2023-03-14T03:32:53;6.90;;;2.50;;
34234;SDS011;20500;49.856;20.290;2023-03-14T03:35:59;9.00;;;3.10;;
34234;SDS011;20500;49.856;20.290;2023-03-14T03:39:05;9.40;;;3.00;;
34234;SDS011;20500;49.856;20.290;2023-03-14T03:45:15;8.30;;;2.60;;
34234;SDS011;20500;49.856;20.290;2023-03-14T03:48:21;6.80;;;2.60;;
34234;SDS011;20500;49.856;20.290;2023-03-14T03:51:27;7.30;;;2.50;;
34234;SDS011;20500;49.856;20.290;2023-03-14T03:54:33;7.00;;;2.40;;
34234;SDS011;20500;49.856;20.290;2023-03-14T03:57:40;9.80;;;3.10;;
34234;SDS011;20500;49.856;20.290;2023-03-14T04:00:46;6.70;;;2.40;;
34234;SDS011;20500;49.856;20.290;2023-03-14T04:03:51;6.50;;;2.20;;
34234;SDS011;20500;49.856;20.290;2023-03-14T04:10:02;8.50;;;2.60;;
34234;SDS011;20500;49.856;20.290;2023-03-14T04:13:09;7.20;;;2.60;;
34234;SDS011;20500;49.856;20.290;2023-03-14T04:16:15;8.30;;;2.90;;
34234;SDS011;20500;49.856;20.290;2023-03-14T04:19:23;6.70;;;2.40;;
34234;SDS011;20500;49.856;20.290;2023-03-14T04:22:29;8.30;;;2.60;;
34234;SDS011;20500;49.856;20.290;2023-03-14T04:25:34;6.80;;;2.30;;
34234;SDS011;20500;49.856;20.290;2023-03-14T04:28:41;6.60;;;2.40;;
34234;SDS011;20500;49.856;20.290;2023-03-14T04:34:51;6.30;;;2.40;;
34234;SDS011;20500;49.856;20.290;2023-03-14T04:37:57;8.30;;;2.40;;
34234;SDS011;20500;49.856;20.290;2023-03-14T04:41:04;9.00;;;2.60;;
34234;SDS011;20500;49.856;20.290;2023-03-14T04:44:10;7.90;;;2.50;;
34234;SDS011;20500;49.856;20.290;2023-03-14T04:47:16;8.90;;;2.60;;
34234;SDS011;20500;49.856;20.290;2023-03-14T04:50:22;7.90;;;2.20;;
34234;SDS011;20500;49.856;20.290;2023-03-14T04:53:28;7.70;;;2.70;;
34234;SDS011;20500;49.856;20.290;2023-03-14T04:56:35;9.00;;;2.80;;
34234;SDS011;20500;49.856;20.290;2023-03-14T04:59:40;7.20;;;2.40;;
34234;SDS011;20500;49.856;20.290;2023-03-14T05:02:46;5.60;;;2.50;;
34234;SDS011;20500;49.856;20.290;2023-03-14T05:05:52;7.20;;;2.60;;
34234;SDS011;20500;49.856;20.290;2023-03-14T05:09:00;6.50;;;2.50;;
34234;SDS011;20500;49.856;20.290;2023-03-14T05:12:07;7.40;;;2.30;;
34234;SDS011;20500;49.856;20.290;2023-03-14T05:15:13;5.40;;;2.50;;
34234;SDS011;20500;49.856;20.290;2023-03-14T05:18:19;7.00;;;2.40;;
34234;SDS011;20500;49.856;20.290;2023-03-14T05:21:25;5.90;;;2.20;;
34234;SDS011;20500;49.856;20.290;2023-03-14T05:24:31;7.60;;;2.50;;
34234;SDS011;20500;49.856;20.290;2023-03-14T05:27:37;5.60;;;2.00;;
34234;SDS011;20500;49.856;20.290;2023-03-14T05:30:42;8.80;;;3.50;;
34234;SDS011;20500;49.856;20.290;2023-03-14T05:33:48;9.00;;;2.60;;
34234;SDS011;20500;49.856;20.290;2023-03-14T05:36:54;8.70;;;3.00;;
34234;SDS011;20500;49.856;20.290;2023-03-14T05:40:00;8.60;;;2.90;;
34234;SDS011;20500;49.856;20.290;2023-03-14T05:43:07;7.60;;;2.90;;
34234;SDS011;20500;49.856;20.290;2023-03-14T05:46:13;7.00;;;2.60;;
34234;SDS011;20500;49.856;20.290;2023-03-14T05:49:19;11.30;;;3.00;;
34234;SDS011;20500;49.856;20.290;2023-03-14T05:52:25;8.40;;;3.10;;
34234;SDS011;20500;49.856;20.290;2023-03-14T05:55:31;6.50;;;2.40;;
34234;SDS011;20500;49.856;20.290;2023-03-14T05:58:36;7.80;;;2.70;;
34234;SDS011;20500;49.856;20.290;2023-03-14T06:01:42;8.20;;;2.70;;
34234;SDS011;20500;49.856;20.290;2023-03-14T06:04:48;8.90;;;2.40;;
34234;SDS011;20500;49.856;20.290;2023-03-14T06:07:54;7.00;;;2.40;;
34234;SDS011;20500;49.856;20.290;2023-03-14T06:11:01;7.20;;;2.60;;
34234;SDS011;20500;49.856;20.290;2023-03-14T06:14:08;6.90;;;2.50;;
34234;SDS011;20500;49.856;20.290;2023-03-14T06:17:14;8.20;;;2.80;;
34234;SDS011;20500;49.856;20.290;2023-03-14T06:20:20;9.50;;;3.20;;
34234;SDS011;20500;49.856;20.290;2023-03-14T06:23:26;8.60;;;3.00;;
34234;SDS011;20500;49.856;20.290;2023-03-14T06:26:33;9.50;;;3.50;;
34234;SDS011;20500;49.856;20.290;2023-03-14T06:29:39;8.10;;;3.10;;
34234;SDS011;20500;49.856;20.290;2023-03-14T06:32:45;9.30;;;3.10;;
34234;SDS011;20500;49.856;20.290;2023-03-14T06:35:51;8.60;;;3.10;;
34234;SDS011;20500;49.856;20.290;2023-03-14T06:38:56;6.80;;;2.60;;
34234;SDS011;20500;49.856;20.290;2023-03-14T06:42:03;7.90;;;2.90;;
34234;SDS011;20500;49.856;20.290;2023-03-14T06:45:10;8.00;;;2.70;;
34234;SDS011;20500;49.856;20.290;2023-03-14T06:48:16;9.10;;;2.90;;
34234;SDS011;20500;49.856;20.290;2023-03-14T06:51:22;8.40;;;2.80;;
34234;SDS011;20500;49.856;20.290;2023-03-14T06:54:28;8.30;;;2.70;;
34234;SDS011;20500;49.856;20.290;2023-03-14T07:00:38;8.50;;;3.10;;
34234;SDS011;20500;49.856;20.290;2023-03-14T07:03:44;10.60;;;3.70;;
34234;SDS011;20500;49.856;20.290;2023-03-14T07:06:50;7.60;;;2.80;;
34234;SDS011;20500;49.856;20.290;2023-03-14T07:09:56;8.90;;;2.90;;
34234;SDS011;20500;49.856;20.290;2023-03-14T07:13:02;9.20;;;2.70;;
34234;SDS011;20500;49.856;20.290;2023-03-14T07:19:13;8.60;;;2.40;;
34234;SDS011;20500;49.856;20.290;2023-03-14T07:22:19;7.90;;;2.70;;
34234;SDS011;20500;49.856;20.290;2023-03-14T07:25:25;8.20;;;2.50;;
34234;SDS011;20500;49.856;20.290;2023-03-14T07:31:35;10.00;;;3.20;;
34234;SDS011;20500;49.856;20.290;2023-03-14T07:34:41;9.20;;;3.10;;
34234;SDS011;20500;49.856;20.290;2023-03-14T07:40:55;8.60;;;3.00;;
34234;SDS011;20500;49.856;20.290;2023-03-14T07:44:04;10.80;;;3.40;;
34234;SDS011;20500;49.856;20.290;2023-03-14T07:47:09;8.10;;;2.80;;
34234;SDS011;20500;49.856;20.290;2023-03-14T07:50:16;9.40;;;3.00;;
34234;SDS011;20500;49.856;20.290;2023-03-14T07:53:23;9.30;;;2.80;;
34234;SDS011;20500;49.856;20.290;2023-03-14T07:56:28;5.60;;;2.20;;
34234;SDS011;20500;49.856;20.290;2023-03-14T07:59:35;7.60;;;2.30;;
34234;SDS011;20500;49.856;20.290;2023-03-14T08:02:41;8.40;;;2.60;;
34234;SDS011;20500;49.856;20.290;2023-03-14T08:05:48;7.60;;;2.60;;
34234;SDS011;20500;49.856;20.290;2023-03-14T08:08:54;9.20;;;2.60;;
34234;SDS011;20500;49.856;20.290;2023-03-14T08:12:00;7.60;;;2.80;;
34234;SDS011;20500;49.856;20.290;2023-03-14T08:15:07;8.20;;;2.80;;
34234;SDS011;20500;49.856;20.290;2023-03-14T08:18:14;7.20;;;2.60;;
34234;SDS011;20500;49.856;20.290;2023-03-14T08:21:20;9.80;;;2.90;;
34234;SDS011;20500;49.856;20.290;2023-03-14T08:24:25;9.20;;;2.60;;
34234;SDS011;20500;49.856;20.290;2023-03-14T08:30:36;7.30;;;2.50;;
34234;SDS011;20500;49.856;20.290;2023-03-14T08:33:42;7.70;;;2.70;;
34234;SDS011;20500;49.856;20.290;2023-03-14T08:39:53;8.30;;;3.00;;
34234;SDS011;20500;49.856;20.290;2023-03-14T08:42:59;8.90;;;3.00;;
34234;SDS011;20500;49.856;20.290;2023-03-14T08:46:05;7.90;;;2.70;;
34234;SDS011;20500;49.856;20.290;2023-03-14T08:49:11;9.60;;;2.90;;
34234;SDS011;20500;49.856;20.290;2023-03-14T08:52:17;8.30;;;3.00;;
34234;SDS011;20500;49.856;20.290;2023-03-14T08:55:23;8.10;;;2.70;;
34234;SDS011;20500;49.856;20.290;2023-03-14T08:58:30;7.30;;;2.50;;
34234;SDS011;20500;49.856;20.290;2023-03-14T09:01:37;8.90;;;2.70;;
34234;SDS011;20500;49.856;20.290;2023-03-14T09:04:43;7.30;;;2.70;;
34234;SDS011;20500;49.856;20.290;2023-03-14T09:07:48;7.10;;;2.50;;
34234;SDS011;20500;49.856;20.290;2023-03-14T09:10:54;7.50;;;2.70;;
34234;SDS011;20500;49.856;20.290;2023-03-14T09:14:00;8.10;;;2.60;;
34234;SDS011;20500;49.856;20.290;2023-03-14T09:17:06;9.30;;;2.20;;
34234;SDS011;20500;49.856;20.290;2023-03-14T09:20:12;7.60;;;2.50;;
34234;SDS011;20500;49.856;20.290;2023-03-14T09:23:19;8.00;;;2.70;;
34234;SDS011;20500;49.856;20.290;2023-03-14T09:26:25;7.20;;;2.50;;
34234;SDS011;20500;49.856;20.290;2023-03-14T09:29:30;7.50;;;2.60;;
34234;SDS011;20500;49.856;20.290;2023-03-14T09:32:36;7.40;;;2.60;;
34234;SDS011;20500;49.856;20.290;2023-03-14T09:35:42;8.20;;;2.70;;
34234;SDS011;20500;49.856;20.290;2023-03-14T09:38:48;7.60;;;2.70;;
34234;SDS011;20500;49.856;20.290;2023-03-14T09:41:54;10.10;;;2.70;;
34234;SDS011;20500;49.856;20.290;2023-03-14T09:45:04;7.20;;;2.40;;
34234;SDS011;20500;49.856;20.290;2023-03-14T09:48:16;7.70;;;2.50;;
34234;SDS011;20500;49.856;20.290;2023-03-14T09:51:23;10.10;;;2.90;;
34234;SDS011;20500;49.856;20.290;2023-03-14T09:54:34;7.20;;;2.30;;
34234;SDS011;20500;49.856;20.290;2023-03-14T09:57:42;6.60;;;2.60;;
34234;SDS011;20500;49.856;20.290;2023-03-14T10:00:52;10.10;;;2.80;;
34234;SDS011;20500;49.856;20.290;2023-03-14T10:04:00;7.60;;;2.90;;
34234;SDS011;20500;49.856;20.290;2023-03-14T10:07:11;9.50;;;2.50;;
34234;SDS011;20500;49.856;20.290;2023-03-14T10:10:23;7.40;;;2.90;;
34234;SDS011;20500;49.856;20.290;2023-03-14T10:13:30;6.70;;;2.40;;
34234;SDS011;20500;49.856;20.290;2023-03-14T10:16:36;8.50;;;2.80;;
34234;SDS011;20500;49.856;20.290;2023-03-14T10:19:54;8.30;;;2.90;;
34234;SDS011;20500;49.856;20.290;2023-03-14T10:23:04;13.90;;;3.90;;
34234;SDS011;20500;49.856;20.290;2023-03-14T10:26:26;9.70;;;3.40;;
34234;SDS011;20500;49.856;20.290;2023-03-14T10:29:51;9.80;;;4.00;;
34234;SDS011;20500;49.856;20.290;2023-03-14T10:33:08;8.50;;;2.90;;
34234;SDS011;20500;49.856;20.290;2023-03-14T10:36:17;7.90;;;2.90;;
34234;SDS011;20500;49.856;20.290;2023-03-14T10:39:27;7.60;;;2.70;;
34234;SDS011;20500;49.856;20.290;2023-03-14T10:42:42;7.50;;;2.70;;
34234;SDS011;20500;49.856;20.290;2023-03-14T10:45:54;8.70;;;2.80;;
34234;SDS011;20500;49.856;20.290;2023-03-14T10:49:01;9.20;;;3.00;;
34234;SDS011;20500;49.856;20.290;2023-03-14T10:52:18;7.40;;;2.60;;
34234;SDS011;20500;49.856;20.290;2023-03-14T10:55:46;6.90;;;2.50;;
34234;SDS011;20500;49.856;20.290;2023-03-14T10:58:52;7.30;;;2.90;;
34234;SDS011;20500;49.856;20.290;2023-03-14T11:02:01;11.10;;;2.90;;
34234;SDS011;20500;49.856;20.290;2023-03-14T11:05:18;7.10;;;2.50;;
34234;SDS011;20500;49.856;20.290;2023-03-14T11:08:33;9.20;;;2.90;;
34234;SDS011;20500;49.856;20.290;2023-03-14T11:11:47;8.00;;;2.90;;
34234;SDS011;20500;49.856;20.290;2023-03-14T11:21:43;9.90;;;2.80;;
34234;SDS011;20500;49.856;20.290;2023-03-14T11:25:01;8.60;;;3.10;;
34234;SDS011;20500;49.856;20.290;2023-03-14T11:28:19;8.00;;;3.00;;
34234;SDS011;20500;49.856;20.290;2023-03-14T11:31:34;7.90;;;2.90;;
34234;SDS011;20500;49.856;20.290;2023-03-14T11:34:44;11.10;;;3.00;;
34234;SDS011;20500;49.856;20.290;2023-03-14T11:37:56;7.60;;;2.70;;
34234;SDS011;20500;49.856;20.290;2023-03-14T11:41:14;7.60;;;2.60;;
34234;SDS011;20500;49.856;20.290;2023-03-14T11:44:24;9.60;;;2.60;;
34234;SDS011;20500;49.856;20.290;2023-03-14T11:47:34;8.20;;;3.00;;
34234;SDS011;20500;49.856;20.290;2023-03-14T11:50:46;8.10;;;2.50;;
34234;SDS011;20500;49.856;20.290;2023-03-14T11:53:57;7.30;;;2.70;;
34234;SDS011;20500;49.856;20.290;2023-03-14T11:57:09;8.70;;;2.90;;
34234;SDS011;20500;49.856;20.290;2023-03-14T12:00:19;8.90;;;3.20;;
34234;SDS011;20500;49.856;20.290;2023-03-14T12:03:28;8.60;;;2.90;;
34234;SDS011;20500;49.856;20.290;2023-03-14T12:06:44;8.30;;;2.70;;
34234;SDS011;20500;49.856;20.290;2023-03-14T12:09:52;8.60;;;2.70;;
34234;SDS011;20500;49.856;20.290;2023-03-14T12:12:59;9.60;;;2.90;;
34234;SDS011;20500;49.856;20.290;2023-03-14T12:16:06;7.60;;;3.00;;
34234;SDS011;20500;49.856;20.290;2023-03-14T12:19:28;9.40;;;3.30;;
34234;SDS011;20500;49.856;20.290;2023-03-14T12:22:37;9.80;;;4.00;;
34234;SDS011;20500;49.856;20.290;2023-03-14T12:25:48;8.00;;;2.80;;
34234;SDS011;20500;49.856;20.290;2023-03-14T12:29:17;7.90;;;3.00;;
34234;SDS011;20500;49.856;20.290;2023-03-14T12:32:23;8.80;;;3.30;;
34234;SDS011;20500;49.856;20.290;2023-03-14T12:35:34;8.70;;;3.40;;
34234;SDS011;20500;49.856;20.290;2023-03-14T12:38:47;8.20;;;3.30;;
34234;SDS011;20500;49.856;20.290;2023-03-14T12:42:03;10.80;;;3.40;;
34234;SDS011;20500;49.856;20.290;2023-03-14T12:45:23;7.00;;;2.60;;
34234;SDS011;20500;49.856;20.290;2023-03-14T12:48:31;9.70;;;3.70;;
34234;SDS011;20500;49.856;20.290;2023-03-14T12:54:43;7.80;;;2.80;;
34234;SDS011;20500;49.856;20.290;2023-03-14T12:57:59;8.10;;;3.00;;
34234;SDS011;20500;49.856;20.290;2023-03-14T13:01:16;9.10;;;3.30;;
34234;SDS011;20500;49.856;20.290;2023-03-14T13:04:27;9.90;;;3.20;;
34234;SDS011;20500;49.856;20.290;2023-03-14T13:11:10;11.00;;;4.20;;
34234;SDS011;20500;49.856;20.290;2023-03-14T13:14:20;11.10;;;4.30;;
34234;SDS011;20500;49.856;20.290;2023-03-14T13:17:27;9.00;;;3.70;;
34234;SDS011;20500;49.856;20.290;2023-03-14T13:20:40;9.30;;;3.10;;
34234;SDS011;20500;49.856;20.290;2023-03-14T13:23:56;9.50;;;3.40;;
34234;SDS011;20500;49.856;20.290;2023-03-14T13:27:04;8.60;;;3.30;;
34234;SDS011;20500;49.856;20.290;2023-03-14T13:30:19;8.00;;;2.90;;
34234;SDS011;20500;49.856;20.290;2023-03-14T13:33:29;8.60;;;3.30;;
34234;SDS011;20500;49.856;20.290;2023-03-14T13:36:37;8.70;;;3.20;;
34234;SDS011;20500;49.856;20.290;2023-03-14T13:39:43;9.40;;;3.00;;
34234;SDS011;20500;49.856;20.290;2023-03-14T13:43:03;9.10;;;3.20;;
34234;SDS011;20500;49.856;20.290;2023-03-14T13:46:19;8.10;;;3.10;;
34234;SDS011;20500;49.856;20.290;2023-03-14T13:49:28;8.10;;;3.20;;
34234;SDS011;20500;49.856;20.290;2023-03-14T13:52:38;7.90;;;2.90;;
34234;SDS011;20500;49.856;20.290;2023-03-14T13:55:44;7.60;;;3.00;;
34234;SDS011;20500;49.856;20.290;2023-03-14T13:58:50;9.40;;;3.10;;
34234;SDS011;20500;49.856;20.290;2023-03-14T14:05:01;9.90;;;3.60;;
34234;SDS011;20500;49.856;20.290;2023-03-14T14:08:11;13.20;;;5.20;;
34234;SDS011;20500;49.856;20.290;2023-03-14T14:11:21;12.30;;;6.00;;
34234;SDS011;20500;49.856;20.290;2023-03-14T14:14:49;11.40;;;5.10;;
34234;SDS011;20500;49.856;20.290;2023-03-14T14:18:00;13.00;;;5.20;;
34234;SDS011;20500;49.856;20.290;2023-03-14T14:21:09;10.90;;;4.30;;
34234;SDS011;20500;49.856;20.290;2023-03-14T14:24:16;10.90;;;4.40;;
34234;SDS011;20500;49.856;20.290;2023-03-14T14:27:27;12.70;;;5.00;;
34234;SDS011;20500;49.856;20.290;2023-03-14T14:30:38;11.00;;;4.60;;
34234;SDS011;20500;49.856;20.290;2023-03-14T14:33:44;10.80;;;4.20;;
34234;SDS011;20500;49.856;20.290;2023-03-14T14:36:57;13.30;;;4.20;;
34234;SDS011;20500;49.856;20.290;2023-03-14T14:40:08;10.60;;;4.60;;
34234;SDS011;20500;49.856;20.290;2023-03-14T14:43:21;9.90;;;4.00;;
34234;SDS011;20500;49.856;20.290;2023-03-14T14:46:31;9.00;;;3.50;;
34234;SDS011;20500;49.856;20.290;2023-03-14T14:49:40;9.20;;;3.20;;
34234;SDS011;20500;49.856;20.290;2023-03-14T14:52:46;10.20;;;3.60;;
34234;SDS011;20500;49.856;20.290;2023-03-14T14:55:52;9.40;;;3.20;;
34234;SDS011;20500;49.856;20.290;2023-03-14T14:59:00;9.80;;;3.20;;
34234;SDS011;20500;49.856;20.290;2023-03-14T15:02:27;9.30;;;3.40;;
34234;SDS011;20500;49.856;20.290;2023-03-14T15:05:40;25.00;;;17.30;;
34234;SDS011;20500;49.856;20.290;2023-03-14T15:08:47;23.30;;;20.50;;
34234;SDS011;20500;49.856;20.290;2023-03-14T15:11:53;20.40;;;16.00;;
34234;SDS011;20500;49.856;20.290;2023-03-14T15:14:59;14.70;;;9.30;;
34234;SDS011;20500;49.856;20.290;2023-03-14T15:18:10;13.70;;;7.30;;
34234;SDS011;20500;49.856;20.290;2023-03-14T15:21:18;12.60;;;7.20;;
34234;SDS011;20500;49.856;20.290;2023-03-14T15:24:24;9.80;;;3.90;;
34234;SDS011;20500;49.856;20.290;2023-03-14T15:27:31;12.40;;;5.40;;
34234;SDS011;20500;49.856;20.290;2023-03-14T15:30:38;15.60;;;7.80;;
34234;SDS011;20500;49.856;20.290;2023-03-14T15:33:44;12.20;;;5.90;;
34234;SDS011;20500;49.856;20.290;2023-03-14T15:36:50;14.80;;;6.80;;
34234;SDS011;20500;49.856;20.290;2023-03-14T15:39:56;21.50;;;12.70;;
34234;SDS011;20500;49.856;20.290;2023-03-14T15:43:02;18.50;;;9.70;;
34234;SDS011;20500;49.856;20.290;2023-03-14T15:46:09;15.20;;;8.40;;
34234;SDS011;20500;49.856;20.290;2023-03-14T15:49:17;13.00;;;5.60;;
34234;SDS011;20500;49.856;20.290;2023-03-14T15:52:23;12.40;;;6.00;;
34234;SDS011;20500;49.856;20.290;2023-03-14T15:55:29;13.10;;;6.30;;
34234;SDS011;20500;49.856;20.290;2023-03-14T16:01:43;12.00;;;5.00;;
34234;SDS011;20500;49.856;20.290;2023-03-14T16:04:50;14.20;;;5.60;;
34234;SDS011;20500;49.856;20.290;2023-03-14T16:07:56;11.50;;;4.70;;
34234;SDS011;20500;49.856;20.290;2023-03-14T16:11:04;13.70;;;5.80;;
34234;SDS011;20500;49.856;20.290;2023-03-14T16:14:10;12.80;;;5.60;;
34234;SDS011;20500;49.856;20.290;2023-03-14T16:17:16;13.40;;;5.50;;
34234;SDS011;20500;49.856;20.290;2023-03-14T16:20:22;13.30;;;5.60;;
34234;SDS011;20500;49.856;20.290;2023-03-14T16:23:33;15.20;;;5.60;;
34234;SDS011;20500;49.856;20.290;2023-03-14T16:26:39;12.60;;;5.60;;
34234;SDS011;20500;49.856;20.290;2023-03-14T16:29:47;11.50;;;5.70;;
34234;SDS011;20500;49.856;20.290;2023-03-14T16:32:52;15.00;;;6.10;;
34234;SDS011;20500;49.856;20.290;2023-03-14T16:36:00;13.00;;;7.00;;
34234;SDS011;20500;49.856;20.290;2023-03-14T16:39:10;16.00;;;8.20;;
34234;SDS011;20500;49.856;20.290;2023-03-14T16:42:16;16.30;;;7.50;;
34234;SDS011;20500;49.856;20.290;2023-03-14T16:45:23;16.50;;;8.20;;
34234;SDS011;20500;49.856;20.290;2023-03-14T16:48:29;14.20;;;8.10;;
34234;SDS011;20500;49.856;20.290;2023-03-14T16:51:35;15.70;;;9.70;;
34234;SDS011;20500;49.856;20.290;2023-03-14T16:54:41;18.30;;;9.50;;
34234;SDS011;20500;49.856;20.290;2023-03-14T16:57:47;16.50;;;9.60;;
34234;SDS011;20500;49.856;20.290;2023-03-14T17:00:53;16.90;;;9.60;;
34234;SDS011;20500;49.856;20.290;2023-03-14T17:04:00;16.20;;;10.10;;
34234;SDS011;20500;49.856;20.290;2023-03-14T17:07:06;17.00;;;10.10;;
34234;SDS011;20500;49.856;20.290;2023-03-14T17:10:12;16.70;;;9.70;;
34234;SDS011;20500;49.856;20.290;2023-03-14T17:13:18;16.30;;;10.50;;
34234;SDS011;20500;49.856;20.290;2023-03-14T17:16:27;16.10;;;9.80;;
34234;SDS011;20500;49.856;20.290;2023-03-14T17:19:34;17.00;;;11.90;;
34234;SDS011;20500;49.856;20.290;2023-03-14T17:22:40;17.20;;;11.20;;
34234;SDS011;20500;49.856;20.290;2023-03-14T17:25:46;19.20;;;12.90;;
34234;SDS011;20500;49.856;20.290;2023-03-14T17:28:53;19.10;;;11.60;;
34234;SDS011;20500;49.856;20.290;2023-03-14T17:31:59;17.50;;;11.80;;
34234;SDS011;20500;49.856;20.290;2023-03-14T17:35:05;19.60;;;13.20;;
34234;SDS011;20500;49.856;20.290;2023-03-14T17:38:11;24.60;;;16.10;;
34234;SDS011;20500;49.856;20.290;2023-03-14T17:41:17;23.60;;;16.10;;
34234;SDS011;20500;49.856;20.290;2023-03-14T17:44:23;17.60;;;12.40;;
34234;SDS011;20500;49.856;20.290;2023-03-14T17:47:29;17.20;;;10.10;;
34234;SDS011;20500;49.856;20.290;2023-03-14T17:50:35;21.80;;;13.80;;
34234;SDS011;20500;49.856;20.290;2023-03-14T17:53:41;17.60;;;10.70;;
34234;SDS011;20500;49.856;20.290;2023-03-14T17:56:47;19.70;;;12.60;;
34234;SDS011;20500;49.856;20.290;2023-03-14T17:59:53;18.20;;;11.70;;
34234;SDS011;20500;49.856;20.290;2023-03-14T18:02:59;28.40;;;17.70;;
34234;SDS011;20500;49.856;20.290;2023-03-14T18:12:16;26.50;;;17.10;;
34234;SDS011;20500;49.856;20.290;2023-03-14T18:15:22;29.70;;;19.80;;
34234;SDS011;20500;49.856;20.290;2023-03-14T18:18:28;17.10;;;9.70;;
34234;SDS011;20500;49.856;20.290;2023-03-14T18:21:33;20.80;;;11.90;;
34234;SDS011;20500;49.856;20.290;2023-03-14T18:24:42;16.40;;;9.40;;
34234;SDS011;20500;49.856;20.290;2023-03-14T18:27:48;29.30;;;19.30;;
34234;SDS011;20500;49.856;20.290;2023-03-14T18:34:03;69.20;;;42.90;;
34234;SDS011;20500;49.856;20.290;2023-03-14T18:37:09;44.90;;;24.00;;
34234;SDS011;20500;49.856;20.290;2023-03-14T18:40:15;41.50;;;25.40;;
34234;SDS011;20500;49.856;20.290;2023-03-14T18:43:22;37.60;;;20.60;;
34234;SDS011;20500;49.856;20.290;2023-03-14T18:46:28;21.20;;;11.80;;
34234;SDS011;20500;49.856;20.290;2023-03-14T18:49:34;23.60;;;14.10;;
34234;SDS011;20500;49.856;20.290;2023-03-14T18:52:40;23.00;;;13.30;;
34234;SDS011;20500;49.856;20.290;2023-03-14T18:55:46;30.00;;;17.00;;
34234;SDS011;20500;49.856;20.290;2023-03-14T18:58:53;14.00;;;6.80;;
34234;SDS011;20500;49.856;20.290;2023-03-14T19:02:00;20.10;;;11.50;;
34234;SDS011;20500;49.856;20.290;2023-03-14T19:05:07;16.80;;;8.00;;
34234;SDS011;20500;49.856;20.290;2023-03-14T19:08:15;18.20;;;9.30;;
34234;SDS011;20500;49.856;20.290;2023-03-14T19:14:28;21.30;;;13.70;;
34234;SDS011;20500;49.856;20.290;2023-03-14T19:17:34;14.50;;;8.00;;
34234;SDS011;20500;49.856;20.290;2023-03-14T19:23:46;12.60;;;7.10;;
34234;SDS011;20500;49.856;20.290;2023-03-14T19:26:53;11.70;;;5.50;;
34234;SDS011;20500;49.856;20.290;2023-03-14T19:29:59;12.00;;;5.40;;
34234;SDS011;20500;49.856;20.290;2023-03-14T19:33:05;12.30;;;5.60;;
34234;SDS011;20500;49.856;20.290;2023-03-14T19:36:17;12.30;;;6.30;;
34234;SDS011;20500;49.856;20.290;2023-03-14T19:39:25;12.60;;;6.40;;
34234;SDS011;20500;49.856;20.290;2023-03-14T19:42:31;13.90;;;7.00;;
34234;SDS011;20500;49.856;20.290;2023-03-14T19:45:37;13.00;;;6.50;;
34234;SDS011;20500;49.856;20.290;2023-03-14T19:48:45;14.20;;;6.00;;